Time;durP1;ratioP1;P1;durP2;ratioP2;P2;SDS_P1;SDS_P2;PMS_P1;PMS_P2;Temp;Humidity;BMP_temperature;BMP_pressure;BME280_temperature;BME280_humidity;BME280_pressure;Samples;Min_cycle;Max_cycle;Signal;HPM_P1;HPM_P2
2021/01/23 00:01:22;;;;;;;7.80;6.50;;;3.50;99.90;;;;;;5019069;28;20260;-76
2021/01/23 00:03:48;;;;;;;7.75;5.85;;;3.30;99.90;;;;;;5016693;28;20719;-77
2021/01/23 00:06:15;;;;;;;9.40;6.30;;;3.30;99.90;;;;;;5020862;28;20271;-76
2021/01/23 00:08:42;;;;;;;8.15;6.47;;;3.30;99.90;;;;;;5021528;28;20211;-78
2021/01/23 00:11:08;;;;;;;9.05;6.15;;;3.30;99.90;;;;;;4999584;28;20243;-79
2021/01/23 00:13:35;;;;;;;9.40;5.75;;;3.20;99.90;;;;;;4998383;28;20224;-76
2021/01/23 00:16:01;;;;;;;10.55;5.90;;;3.20;99.90;;;;;;5016923;28;20757;-78
2021/01/23 00:18:27;;;;;;;7.13;6.03;;;3.20;99.90;;;;;;5019349;28;20299;-76
2021/01/23 00:20:54;;;;;;;7.65;6.50;;;3.20;99.90;;;;;;5024832;28;20339;-79
2021/01/23 00:23:20;;;;;;;7.07;5.60;;;3.10;99.90;;;;;;5019907;28;20226;-78
2021/01/23 00:25:47;;;;;;;7.30;6.50;;;3.10;99.90;;;;;;5014582;28;20203;-76
2021/01/23 00:28:14;;;;;;;7.43;6.03;;;3.00;99.90;;;;;;5020959;28;20536;-78
2021/01/23 00:30:40;;;;;;;8.55;6.72;;;3.00;99.90;;;;;;5000826;28;20323;-78
2021/01/23 00:33:07;;;;;;;7.82;5.70;;;3.00;99.90;;;;;;4999846;28;20207;-77
2021/01/23 00:35:33;;;;;;;7.30;5.63;;;3.00;99.90;;;;;;5015140;28;20337;-76
2021/01/23 00:37:59;;;;;;;8.52;6.55;;;2.90;99.90;;;;;;5019145;28;20250;-78
2021/01/23 00:40:26;;;;;;;7.50;5.88;;;2.90;99.90;;;;;;5003770;28;20665;-76
2021/01/23 00:42:53;;;;;;;8.20;5.75;;;3.00;99.90;;;;;;5000551;28;20212;-77
2021/01/23 00:45:20;;;;;;;6.90;5.82;;;3.00;99.90;;;;;;4999440;28;20236;-75
2021/01/23 00:47:46;;;;;;;7.85;5.78;;;3.00;99.90;;;;;;4998300;28;20259;-77
2021/01/23 00:50:13;;;;;;;8.35;6.60;;;3.00;99.90;;;;;;5000114;28;20249;-77
2021/01/23 00:52:39;;;;;;;7.97;6.10;;;2.90;99.90;;;;;;4999726;28;20254;-79
2021/01/23 00:55:07;;;;;;;8.68;6.78;;;2.90;99.90;;;;;;5019828;28;20212;-78
2021/01/23 00:57:33;;;;;;;8.40;6.13;;;2.90;99.90;;;;;;5021354;28;20227;-78
2021/01/23 01:00:01;;;;;;;7.75;6.13;;;2.90;99.90;;;;;;5020523;28;20719;-76
2021/01/23 01:02:27;;;;;;;8.38;6.15;;;2.90;99.90;;;;;;5030740;28;20196;-77
2021/01/23 01:04:54;;;;;;;9.27;6.32;;;2.90;99.90;;;;;;5020478;28;20203;-78
2021/01/23 01:07:20;;;;;;;8.32;6.15;;;2.90;99.90;;;;;;5015398;28;20292;-78
2021/01/23 01:09:46;;;;;;;6.80;5.38;;;2.90;99.90;;;;;;5024437;28;20273;-78
2021/01/23 01:12:13;;;;;;;7.03;5.30;;;2.80;99.90;;;;;;5031901;28;20230;-78
2021/01/23 01:14:39;;;;;;;8.07;5.70;;;2.80;99.90;;;;;;5019911;28;20264;-77
2021/01/23 01:17:06;;;;;;;7.50;5.25;;;2.80;99.90;;;;;;5009423;28;20224;-76
2021/01/23 01:19:33;;;;;;;7.90;5.70;;;2.70;99.90;;;;;;5010982;28;20196;-79
2021/01/23 01:21:59;;;;;;;7.97;5.28;;;2.70;99.90;;;;;;5024390;28;20291;-78
2021/01/23 01:24:25;;;;;;;10.60;6.43;;;2.70;99.90;;;;;;5033171;28;20238;-77
2021/01/23 01:26:52;;;;;;;6.32;5.13;;;2.60;99.90;;;;;;5034416;28;20279;-77
2021/01/23 01:29:18;;;;;;;8.10;5.85;;;2.70;99.90;;;;;;5029044;28;20244;-77
2021/01/23 01:31:44;;;;;;;7.13;5.30;;;2.70;99.90;;;;;;5014900;28;20228;-78
2021/01/23 01:34:12;;;;;;;8.15;5.60;;;2.70;99.90;;;;;;5018711;28;20200;-78
2021/01/23 01:36:38;;;;;;;6.95;5.50;;;2.60;99.90;;;;;;5033992;28;20263;-77
2021/01/23 01:39:05;;;;;;;6.30;5.30;;;2.60;99.90;;;;;;5025411;28;20602;-78
2021/01/23 01:41:31;;;;;;;8.13;5.07;;;2.50;99.90;;;;;;5007501;28;20265;-77
2021/01/23 01:43:58;;;;;;;8.30;5.70;;;2.60;99.90;;;;;;5002898;28;20204;-78
2021/01/23 01:46:25;;;;;;;9.43;6.00;;;2.60;99.90;;;;;;4999022;28;20331;-78
2021/01/23 01:48:51;;;;;;;7.57;5.60;;;2.60;99.90;;;;;;5010816;28;20200;-77
2021/01/23 01:51:19;;;;;;;7.80;6.18;;;2.70;99.90;;;;;;5033499;28;20205;-74
2021/01/23 01:53:45;;;;;;;7.57;5.75;;;2.60;99.90;;;;;;5025435;28;20231;-76
2021/01/23 01:56:12;;;;;;;8.07;6.20;;;2.70;99.90;;;;;;4997701;28;20232;-79
2021/01/23 01:58:38;;;;;;;8.80;6.18;;;2.70;99.90;;;;;;4998270;28;20215;-78
2021/01/23 02:01:05;;;;;;;8.00;6.47;;;2.70;99.90;;;;;;5015114;28;20299;-78
2021/01/23 02:03:53;;;;;;;7.55;5.72;;;2.80;99.90;;;;;;5015361;28;20567;-79
2021/01/23 02:06:41;;;;;;;8.88;6.30;;;2.80;99.90;;;;;;5016465;28;20267;-77
2021/01/23 02:09:17;;;;;;;8.98;6.40;;;2.80;99.90;;;;;;5014933;28;20220;-77
2021/01/23 02:11:57;;;;;;;9.45;6.38;;;2.80;99.90;;;;;;5013476;28;20207;-78
2021/01/23 02:14:30;;;;;;;9.95;6.20;;;2.80;99.90;;;;;;5011663;28;20621;-77
2021/01/23 02:17:02;;;;;;;8.40;6.03;;;2.80;99.90;;;;;;5010349;28;20688;-76
2021/01/23 02:19:59;;;;;;;8.30;5.85;;;2.80;99.90;;;;;;5015305;28;20189;-76
2021/01/23 02:22:43;;;;;;;8.15;6.40;;;2.80;99.90;;;;;;5029366;28;20222;-77
2021/01/23 02:25:12;;;;;;;8.45;6.60;;;2.80;99.90;;;;;;5025471;28;20207;-78
2021/01/23 02:27:48;;;;;;;8.05;6.68;;;2.80;99.90;;;;;;5008692;28;20283;-77
2021/01/23 02:30:18;;;;;;;10.60;7.00;;;2.80;99.90;;;;;;5018753;28;20220;-78
2021/01/23 02:32:48;;;;;;;10.00;6.45;;;2.80;99.90;;;;;;5029275;28;20239;-78
2021/01/23 02:35:16;;;;;;;11.02;7.63;;;2.90;99.90;;;;;;5025416;28;20238;-78
2021/01/23 02:37:44;;;;;;;10.48;7.10;;;2.90;99.90;;;;;;5024991;28;20243;-78
2021/01/23 02:40:11;;;;;;;11.60;8.45;;;2.90;99.90;;;;;;5016803;28;20290;-77
2021/01/23 02:42:38;;;;;;;12.48;7.82;;;2.90;99.90;;;;;;5002095;28;20204;-78
2021/01/23 02:45:06;;;;;;;13.40;8.43;;;2.90;99.90;;;;;;4999488;28;20295;-77
2021/01/23 02:47:33;;;;;;;10.02;7.25;;;2.90;99.90;;;;;;4996745;28;20232;-77
2021/01/23 02:50:00;;;;;;;11.02;8.52;;;2.90;99.90;;;;;;5005203;28;20323;-77
2021/01/23 02:52:36;;;;;;;13.27;8.18;;;2.90;99.90;;;;;;5017093;28;20207;-78
2021/01/23 02:55:06;;;;;;;13.20;8.20;;;2.90;99.90;;;;;;5014729;28;20201;-78
2021/01/23 02:57:33;;;;;;;12.77;8.55;;;3.00;99.90;;;;;;5025071;28;20231;-78
2021/01/23 03:00:06;;;;;;;12.35;8.77;;;3.00;99.90;;;;;;5017233;28;20239;-76
2021/01/23 03:02:35;;;;;;;14.70;8.32;;;3.00;99.90;;;;;;5015631;28;20208;-77
2021/01/23 03:05:03;;;;;;;13.90;8.48;;;3.00;99.90;;;;;;5010075;28;20283;-77
2021/01/23 03:07:30;;;;;;;13.07;8.80;;;3.00;99.90;;;;;;4997141;28;20315;-78
2021/01/23 03:09:56;;;;;;;12.50;8.52;;;3.00;99.90;;;;;;5012468;28;20241;-77
2021/01/23 03:12:22;;;;;;;14.55;8.70;;;3.00;99.90;;;;;;5015692;28;20211;-77
2021/01/23 03:14:49;;;;;;;13.13;8.80;;;3.00;99.90;;;;;;5005523;28;20634;-77
2021/01/23 03:17:15;;;;;;;10.65;7.90;;;3.00;99.90;;;;;;5004828;28;20322;-77
2021/01/23 03:19:42;;;;;;;16.77;9.07;;;3.00;99.90;;;;;;5021720;28;20204;-77
2021/01/23 03:22:09;;;;;;;14.50;9.75;;;3.10;99.90;;;;;;5034264;28;20223;-77
2021/01/23 03:24:35;;;;;;;13.60;8.55;;;3.20;99.90;;;;;;5030743;28;20222;-77
2021/01/23 03:27:02;;;;;;;13.82;9.55;;;3.20;99.90;;;;;;5017082;28;20750;-77
2021/01/23 03:29:28;;;;;;;13.63;9.13;;;3.20;99.90;;;;;;5005177;28;20576;-78
2021/01/23 03:31:55;;;;;;;12.80;9.18;;;3.20;99.90;;;;;;4995667;28;20637;-77
2021/01/23 03:34:21;;;;;;;13.45;9.20;;;3.10;99.90;;;;;;4998952;28;20328;-78
2021/01/23 03:36:47;;;;;;;13.18;9.77;;;3.20;99.90;;;;;;5034629;23;20262;-74
2021/01/23 03:39:14;;;;;;;15.98;9.90;;;3.20;99.90;;;;;;5045631;28;20230;-74
2021/01/23 03:41:41;;;;;;;11.70;8.68;;;3.20;99.90;;;;;;5033558;28;20253;-74
2021/01/23 03:44:07;;;;;;;14.25;9.68;;;3.20;99.90;;;;;;5033011;28;20285;-74
2021/01/23 03:46:34;;;;;;;12.60;8.48;;;3.20;99.90;;;;;;5027532;28;20745;-74
2021/01/23 03:49:01;;;;;;;14.57;9.25;;;3.20;99.90;;;;;;5016226;28;20200;-74
2021/01/23 03:51:27;;;;;;;15.65;9.90;;;3.20;99.90;;;;;;5024711;28;20211;-74
2021/01/23 03:53:54;;;;;;;15.23;9.30;;;3.20;99.90;;;;;;5033365;28;20344;-74
2021/01/23 03:56:21;;;;;;;14.10;9.73;;;3.30;99.90;;;;;;5012941;28;20271;-74
2021/01/23 03:58:48;;;;;;;15.32;9.27;;;3.30;99.90;;;;;;5023830;28;20211;-75
2021/01/23 04:01:14;;;;;;;16.25;10.38;;;3.30;99.90;;;;;;5037938;28;20251;-74
2021/01/23 04:03:40;;;;;;;13.48;9.10;;;3.30;99.90;;;;;;5036292;28;20203;-74
2021/01/23 04:06:07;;;;;;;13.18;9.50;;;3.20;99.90;;;;;;5031150;28;20572;-75
2021/01/23 04:08:33;;;;;;;16.00;9.23;;;3.20;99.90;;;;;;5016326;28;20690;-73
2021/01/23 04:10:59;;;;;;;12.85;9.18;;;3.30;99.90;;;;;;5015047;28;20314;-74
2021/01/23 04:13:27;;;;;;;11.93;8.30;;;3.20;99.90;;;;;;5015026;28;20672;-75
2021/01/23 04:15:53;;;;;;;13.15;9.30;;;3.20;99.90;;;;;;5014991;28;20266;-74
2021/01/23 04:18:20;;;;;;;14.35;9.00;;;3.10;99.90;;;;;;5015410;28;20679;-74
2021/01/23 04:20:46;;;;;;;13.27;8.50;;;3.10;99.90;;;;;;5014880;28;20204;-74
2021/01/23 04:23:12;;;;;;;12.85;8.77;;;3.10;99.90;;;;;;5015503;28;20234;-74
2021/01/23 04:25:39;;;;;;;13.60;7.55;;;3.10;99.90;;;;;;5015445;28;20322;-74
2021/01/23 04:28:05;;;;;;;10.40;7.45;;;3.00;99.90;;;;;;5015902;28;20239;-74
2021/01/23 04:30:32;;;;;;;11.32;7.15;;;3.00;99.90;;;;;;5014458;28;20228;-74
2021/01/23 04:32:59;;;;;;;8.20;6.22;;;3.10;99.90;;;;;;5014662;28;20295;-74
2021/01/23 04:35:25;;;;;;;9.60;6.72;;;3.00;99.90;;;;;;5016057;28;20208;-74
2021/01/23 04:37:52;;;;;;;9.60;6.22;;;3.00;99.90;;;;;;5016203;28;20719;-75
2021/01/23 04:40:18;;;;;;;9.65;6.10;;;3.00;99.90;;;;;;5015396;28;20215;-75
2021/01/23 04:42:45;;;;;;;7.50;5.32;;;3.00;99.90;;;;;;5016027;28;20204;-74
2021/01/23 04:45:13;;;;;;;5.13;4.45;;;3.00;99.90;;;;;;5017178;28;20307;-74
2021/01/23 04:47:41;;;;;;;4.85;3.90;;;3.10;99.90;;;;;;5016645;28;20215;-73
2021/01/23 04:50:10;;;;;;;6.45;4.10;;;3.10;99.90;;;;;;5021098;28;20311;-74
2021/01/23 04:52:38;;;;;;;5.30;3.40;;;3.20;99.90;;;;;;5018030;28;20219;-73
2021/01/23 04:55:06;;;;;;;4.78;3.65;;;3.20;99.90;;;;;;5020852;28;20216;-73
2021/01/23 04:57:32;;;;;;;4.63;3.30;;;3.30;99.90;;;;;;5020395;28;20362;-74
2021/01/23 04:59:58;;;;;;;4.15;3.22;;;3.30;99.90;;;;;;5021438;28;20248;-74
2021/01/23 05:02:25;;;;;;;4.22;3.33;;;3.30;99.90;;;;;;5019659;28;20274;-74
2021/01/23 05:04:55;;;;;;;3.60;2.63;;;3.30;99.90;;;;;;5020062;28;20204;-74
2021/01/23 05:07:30;;;;;;;3.30;3.00;;;3.30;99.90;;;;;;5017217;28;20286;-74
2021/01/23 05:09:57;;;;;;;4.10;2.60;;;3.30;99.90;;;;;;5016676;28;20255;-74
2021/01/23 05:12:37;;;;;;;2.47;2.28;;;3.40;99.70;;;;;;5017084;28;20204;-74
2021/01/23 05:15:07;;;;;;;2.35;2.15;;;3.40;99.70;;;;;;5018910;28;20309;-74
2021/01/23 05:17:46;;;;;;;2.35;1.90;;;3.40;99.00;;;;;;5017760;28;20288;-75
2021/01/23 05:20:28;;;;;;;3.20;2.45;;;3.40;98.20;;;;;;5015433;28;20271;-74
2021/01/23 05:22:54;;;;;;;2.28;2.08;;;3.40;97.50;;;;;;5014937;28;20346;-74
2021/01/23 05:25:21;;;;;;;2.40;2.20;;;3.40;97.00;;;;;;5018271;28;20212;-74
2021/01/23 05:27:47;;;;;;;2.88;2.30;;;3.50;96.40;;;;;;5025227;28;20223;-74
2021/01/23 05:30:15;;;;;;;2.50;2.30;;;3.50;96.30;;;;;;5026323;28;20235;-73
2021/01/23 05:32:41;;;;;;;2.50;2.03;;;3.50;96.30;;;;;;5028776;28;20204;-73
2021/01/23 05:35:16;;;;;;;2.80;2.50;;;3.50;96.00;;;;;;5031486;28;20275;-74
2021/01/23 05:37:42;;;;;;;2.42;2.22;;;3.50;95.90;;;;;;5032565;28;20235;-74
2021/01/23 05:40:09;;;;;;;4.03;3.33;;;3.50;96.30;;;;;;5022059;28;20634;-73
2021/01/23 05:42:42;;;;;;;2.42;2.20;;;3.60;95.60;;;;;;5016384;28;20283;-74
2021/01/23 05:45:11;;;;;;;2.53;2.33;;;3.50;95.00;;;;;;5014760;28;20203;-73
2021/01/23 05:47:52;;;;;;;2.75;2.40;;;3.50;94.90;;;;;;5018682;28;20227;-74
2021/01/23 05:50:20;;;;;;;1.92;1.83;;;3.50;94.80;;;;;;5034608;28;20239;-75
2021/01/23 05:52:47;;;;;;;2.25;2.05;;;3.50;94.60;;;;;;5024846;28;20199;-74
2021/01/23 05:55:14;;;;;;;2.50;2.13;;;3.50;95.00;;;;;;5021340;28;20224;-74
2021/01/23 05:57:42;;;;;;;3.33;2.40;;;3.50;94.80;;;;;;5021248;28;20279;-74
2021/01/23 06:00:09;;;;;;;3.15;2.50;;;3.40;94.60;;;;;;5019964;28;20223;-74
2021/01/23 06:02:37;;;;;;;3.80;2.58;;;3.40;95.00;;;;;;5023227;28;20207;-73
2021/01/23 06:05:03;;;;;;;3.08;2.55;;;3.40;95.20;;;;;;5028383;28;20402;-74
2021/01/23 06:07:44;;;;;;;2.30;2.10;;;3.30;95.20;;;;;;5027551;28;20235;-74
2021/01/23 06:10:36;;;;;;;2.65;2.45;;;3.30;95.40;;;;;;5022788;28;20227;-74
2021/01/23 06:13:03;;;;;;;3.83;3.10;;;3.30;95.70;;;;;;5014368;28;20298;-75
2021/01/23 06:15:37;;;;;;;2.70;2.42;;;3.30;96.00;;;;;;5014896;28;20204;-75
2021/01/23 06:18:05;;;;;;;2.33;2.13;;;3.20;95.90;;;;;;5013973;28;20838;-73
2021/01/23 06:20:54;;;;;;;2.75;2.55;;;3.20;96.20;;;;;;5013397;28;20203;-74
2021/01/23 06:23:22;;;;;;;2.88;2.03;;;3.20;96.20;;;;;;5013108;28;20200;-73
2021/01/23 06:25:59;;;;;;;3.17;2.60;;;3.30;96.30;;;;;;5013795;28;20239;-74
2021/01/23 06:28:53;;;;;;;3.47;3.00;;;3.30;96.50;;;;;;5013001;28;20227;-74
2021/01/23 06:31:35;;;;;;;3.15;2.67;;;3.30;96.50;;;;;;5003552;28;20228;-74
2021/01/23 06:34:21;;;;;;;3.17;2.65;;;3.40;96.50;;;;;;5018231;28;20207;-75
2021/01/23 06:36:47;;;;;;;3.05;2.75;;;3.40;96.30;;;;;;5013303;28;20599;-74
2021/01/23 06:39:15;;;;;;;3.35;3.05;;;3.40;96.30;;;;;;5013003;28;20236;-74
2021/01/23 06:41:41;;;;;;;4.22;3.15;;;3.40;96.30;;;;;;5012472;28;20234;-74
2021/01/23 06:44:21;;;;;;;3.53;2.65;;;3.40;95.90;;;;;;5013302;28;20229;-73
2021/01/23 06:46:58;;;;;;;3.05;2.80;;;3.40;95.90;;;;;;5013856;28;20230;-74
2021/01/23 06:49:25;;;;;;;4.82;2.53;;;3.40;95.80;;;;;;5012686;28;20236;-74
2021/01/23 06:52:04;;;;;;;6.70;3.05;;;3.50;95.60;;;;;;5012765;28;20200;-75
2021/01/23 06:54:32;;;;;;;5.32;3.30;;;3.40;95.20;;;;;;5014874;28;20305;-74
2021/01/23 06:56:59;;;;;;;4.53;2.70;;;3.50;95.20;;;;;;5016800;28;20250;-74
2021/01/23 06:59:27;;;;;;;4.63;3.03;;;3.50;94.90;;;;;;5016362;28;20273;-73
2021/01/23 07:02:01;;;;;;;4.00;2.88;;;3.50;94.80;;;;;;5012390;28;20204;-75
2021/01/23 07:04:29;;;;;;;3.33;3.00;;;3.60;94.40;;;;;;5012848;28;20200;-74
2021/01/23 07:06:57;;;;;;;5.30;3.60;;;3.60;94.30;;;;;;5013133;28;20227;-74
2021/01/23 07:09:47;;;;;;;3.65;3.35;;;3.60;93.90;;;;;;5012775;28;20220;-75
2021/01/23 07:12:34;;;;;;;2.90;2.60;;;3.50;93.80;;;;;;5011844;28;20267;-73
2021/01/23 07:15:01;;;;;;;3.17;2.88;;;3.50;93.70;;;;;;5012253;28;20215;-75
2021/01/23 07:17:27;;;;;;;5.65;3.45;;;3.60;93.90;;;;;;5012566;28;20230;-75
2021/01/23 07:19:54;;;;;;;3.30;3.00;;;3.60;93.70;;;;;;5012721;28;20235;-74
2021/01/23 07:22:21;;;;;;;3.95;3.40;;;3.60;93.40;;;;;;5011682;28;20207;-75
2021/01/23 07:24:50;;;;;;;5.47;3.38;;;3.70;93.50;;;;;;5012512;28;20314;-74
2021/01/23 07:27:16;;;;;;;4.70;3.42;;;3.70;93.20;;;;;;5013787;28;20238;-74
2021/01/23 07:29:48;;;;;;;3.92;3.50;;;3.70;93.20;;;;;;5028936;28;20682;-74
2021/01/23 07:32:15;;;;;;;3.88;3.28;;;3.70;93.00;;;;;;5020999;28;20203;-73
2021/01/23 07:34:53;;;;;;;3.60;3.10;;;3.70;92.90;;;;;;5015238;28;20216;-78
2021/01/23 07:37:44;;;;;;;5.20;3.40;;;3.80;92.90;;;;;;5015799;28;20223;-74
2021/01/23 07:40:13;;;;;;;4.45;3.65;;;3.70;92.50;;;;;;5016235;28;20673;-74
2021/01/23 07:42:40;;;;;;;5.65;3.50;;;3.70;92.30;;;;;;5016134;28;20270;-74
2021/01/23 07:45:08;;;;;;;4.15;3.75;;;3.70;92.20;;;;;;5016695;28;20746;-74
2021/01/23 07:47:36;;;;;;;3.70;3.30;;;3.70;91.90;;;;;;5016629;28;20262;-74
2021/01/23 07:50:07;;;;;;;4.30;3.33;;;3.70;92.00;;;;;;5016937;28;20224;-74
2021/01/23 07:52:34;;;;;;;4.25;3.25;;;3.70;91.70;;;;;;5016263;28;20302;-73
2021/01/23 07:55:00;;;;;;;4.28;3.42;;;3.80;91.60;;;;;;5016733;28;20208;-74
2021/01/23 07:57:28;;;;;;;5.47;4.20;;;3.90;91.40;;;;;;5016566;28;20219;-73
2021/01/23 07:59:54;;;;;;;4.03;3.35;;;3.90;91.50;;;;;;5019092;28;20234;-75
2021/01/23 08:02:21;;;;;;;7.40;3.70;;;4.00;91.20;;;;;;5023252;28;20235;-73
2021/01/23 08:04:48;;;;;;;4.15;3.47;;;4.10;90.60;;;;;;5016355;28;20287;-72
2021/01/23 08:07:19;;;;;;;5.80;3.60;;;4.10;89.70;;;;;;5015854;28;20302;-73
2021/01/23 08:09:46;;;;;;;4.45;3.50;;;4.20;89.00;;;;;;5015967;28;20591;-73
2021/01/23 08:12:17;;;;;;;6.22;3.70;;;4.30;89.00;;;;;;5016815;28;20206;-74
2021/01/23 08:14:55;;;;;;;5.75;3.50;;;4.30;87.80;;;;;;5027787;28;20211;-72
2021/01/23 08:17:36;;;;;;;4.25;3.45;;;4.30;87.10;;;;;;5025704;28;20295;-76
2021/01/23 08:20:04;;;;;;;3.60;3.30;;;4.20;86.90;;;;;;5015905;28;20202;-72
2021/01/23 08:22:30;;;;;;;4.25;3.75;;;4.20;87.00;;;;;;5014349;28;20216;-73
2021/01/23 08:24:57;;;;;;;6.53;4.20;;;4.20;87.30;;;;;;5015902;28;20211;-73
2021/01/23 08:27:23;;;;;;;5.55;4.15;;;4.30;86.40;;;;;;5030235;28;20223;-73
2021/01/23 08:29:51;;;;;;;4.68;4.07;;;4.20;85.20;;;;;;5025240;28;20281;-74
2021/01/23 08:32:18;;;;;;;5.93;4.00;;;4.20;85.10;;;;;;5012457;28;20220;-74
2021/01/23 08:34:49;;;;;;;3.83;3.13;;;4.30;85.00;;;;;;5023548;28;20219;-74
2021/01/23 08:37:16;;;;;;;4.10;3.70;;;4.30;85.70;;;;;;5018827;28;20240;-74
2021/01/23 08:39:43;;;;;;;6.63;3.95;;;4.30;86.20;;;;;;5015495;28;20235;-75
2021/01/23 08:42:10;;;;;;;3.40;3.10;;;4.30;86.50;;;;;;5014730;28;20219;-74
2021/01/23 08:44:37;;;;;;;4.70;3.15;;;4.40;86.80;;;;;;5004092;28;20673;-75
2021/01/23 08:47:03;;;;;;;7.25;5.07;;;4.50;87.10;;;;;;5011882;28;20224;-75
2021/01/23 08:49:31;;;;;;;6.15;4.35;;;4.60;87.10;;;;;;5015618;28;20712;-74
2021/01/23 08:51:58;;;;;;;5.05;3.75;;;4.70;86.50;;;;;;5023300;28;20227;-73
2021/01/23 08:54:24;;;;;;;5.47;3.90;;;4.60;84.80;;;;;;5029792;28;20699;-75
2021/01/23 08:56:51;;;;;;;4.80;4.10;;;4.70;84.70;;;;;;5027730;28;20255;-74
2021/01/23 08:59:17;;;;;;;4.68;4.10;;;4.70;85.00;;;;;;5019986;28;20238;-73
2021/01/23 09:01:44;;;;;;;5.75;3.63;;;4.80;84.10;;;;;;5022059;28;20203;-73
2021/01/23 09:04:10;;;;;;;5.38;3.95;;;4.70;83.50;;;;;;5030703;28;20254;-74
2021/01/23 09:06:37;;;;;;;5.50;2.95;;;4.90;83.90;;;;;;5020081;28;20248;-73
2021/01/23 09:09:05;;;;;;;4.68;4.18;;;4.90;82.80;;;;;;5012755;28;20208;-74
2021/01/23 09:11:32;;;;;;;3.65;3.30;;;4.90;82.20;;;;;;5001981;28;20228;-74
2021/01/23 09:13:58;;;;;;;4.35;3.95;;;4.90;81.50;;;;;;4995666;28;20221;-75
2021/01/23 09:16:25;;;;;;;4.45;3.88;;;5.00;82.10;;;;;;4995112;28;20283;-74
2021/01/23 09:18:51;;;;;;;4.85;3.90;;;5.10;81.50;;;;;;4995076;28;20211;-74
2021/01/23 09:21:17;;;;;;;4.78;3.65;;;5.10;80.00;;;;;;4994991;28;20284;-75
2021/01/23 09:23:45;;;;;;;4.32;3.65;;;5.00;80.10;;;;;;4995258;28;20232;-74
2021/01/23 09:26:11;;;;;;;4.97;4.57;;;5.00;80.20;;;;;;4993889;28;20251;-74
2021/01/23 09:28:37;;;;;;;6.82;4.13;;;5.10;80.00;;;;;;5000485;28;20215;-74
2021/01/23 09:31:04;;;;;;;4.05;3.75;;;5.00;79.20;;;;;;5013315;28;20273;-75
2021/01/23 09:33:30;;;;;;;6.40;5.20;;;5.00;79.80;;;;;;4996978;28;20219;-75
2021/01/23 09:35:58;;;;;;;4.05;3.60;;;5.10;79.10;;;;;;4995249;28;20299;-72
2021/01/23 09:38:24;;;;;;;7.68;4.32;;;5.20;77.50;;;;;;5041840;23;20323;-81
2021/01/23 09:40:51;;;;;;;5.70;4.32;;;5.20;77.20;;;;;;5027013;28;20231;-81
2021/01/23 09:43:18;;;;;;;5.03;3.83;;;5.30;77.50;;;;;;5023606;28;20254;-79
2021/01/23 09:45:44;;;;;;;4.68;3.97;;;5.30;76.20;;;;;;5030779;28;20261;-77
2021/01/23 09:48:11;;;;;;;4.22;3.80;;;5.40;76.30;;;;;;5036333;28;20212;-74
2021/01/23 09:50:38;;;;;;;3.80;3.45;;;5.30;76.10;;;;;;5035149;28;20217;-76
2021/01/23 09:53:04;;;;;;;3.70;3.38;;;5.40;75.70;;;;;;5031792;28;20226;-77
2021/01/23 09:55:31;;;;;;;3.97;3.58;;;5.40;75.10;;;;;;5032064;28;20238;-81
2021/01/23 09:57:58;;;;;;;4.00;3.10;;;5.50;73.40;;;;;;5029342;28;20235;-80
2021/01/23 10:00:25;;;;;;;4.80;3.58;;;5.40;73.30;;;;;;5025676;28;20283;-77
2021/01/23 10:02:51;;;;;;;5.25;3.60;;;5.40;73.30;;;;;;5026813;28;20233;-77
2021/01/23 10:05:18;;;;;;;4.50;3.80;;;5.60;73.50;;;;;;5019900;28;20196;-77
2021/01/23 10:07:44;;;;;;;4.40;3.67;;;5.70;73.60;;;;;;5018381;28;20231;-78
2021/01/23 10:10:11;;;;;;;3.45;3.15;;;5.80;73.70;;;;;;5020098;28;20228;-77
2021/01/23 10:12:37;;;;;;;5.00;3.63;;;5.80;72.70;;;;;;5030016;28;20215;-83
2021/01/23 10:15:06;;;;;;;5.85;3.67;;;6.00;72.40;;;;;;5016663;28;20683;-78
2021/01/23 10:17:32;;;;;;;3.65;3.30;;;6.00;71.30;;;;;;5016554;28;20274;-76
2021/01/23 10:19:59;;;;;;;4.22;3.83;;;6.10;72.10;;;;;;5028169;28;20223;-77
2021/01/23 10:22:26;;;;;;;3.92;3.55;;;6.20;70.40;;;;;;5032544;28;20233;-77
2021/01/23 10:24:53;;;;;;;5.40;4.30;;;6.20;69.70;;;;;;5024716;28;20199;-80
2021/01/23 10:27:19;;;;;;;3.10;2.80;;;6.20;69.70;;;;;;5018140;28;20231;-80
2021/01/23 10:29:46;;;;;;;3.10;2.80;;;6.40;69.40;;;;;;5032886;28;20235;-80
2021/01/23 10:32:13;;;;;;;4.15;3.13;;;6.30;68.10;;;;;;5016932;28;20203;-78
2021/01/23 10:34:39;;;;;;;4.38;2.60;;;6.40;67.70;;;;;;5022575;28;20277;-79
2021/01/23 10:37:06;;;;;;;4.22;2.75;;;6.40;67.10;;;;;;5021883;28;20322;-81
2021/01/23 10:39:32;;;;;;;3.55;2.85;;;6.50;67.50;;;;;;5020946;28;20211;-78
2021/01/23 10:41:59;;;;;;;2.70;2.50;;;6.50;67.10;;;;;;5023854;28;20250;-77
2021/01/23 10:44:25;;;;;;;4.15;3.15;;;6.50;66.60;;;;;;5032148;28;20200;-78
2021/01/23 10:46:53;;;;;;;6.00;3.53;;;6.60;66.80;;;;;;5028616;28;20833;-77
2021/01/23 10:49:20;;;;;;;4.18;2.95;;;6.80;65.90;;;;;;5029559;28;20207;-78
2021/01/23 10:51:47;;;;;;;4.20;2.53;;;6.80;65.90;;;;;;5031795;28;20227;-77
2021/01/23 10:54:16;;;;;;;3.10;2.33;;;6.80;65.80;;;;;;5019475;28;20308;-77
2021/01/23 10:56:43;;;;;;;4.10;2.60;;;6.70;64.20;;;;;;5028613;28;20499;-76
2021/01/23 10:59:09;;;;;;;3.42;2.38;;;6.60;65.60;;;;;;5030087;28;20746;-78
2021/01/23 11:01:36;;;;;;;2.45;2.00;;;6.70;65.80;;;;;;5025318;28;20196;-79
2021/01/23 11:04:02;;;;;;;2.90;2.45;;;6.80;63.60;;;;;;5029871;28;20231;-79
2021/01/23 11:06:29;;;;;;;3.53;2.47;;;6.80;64.10;;;;;;5032081;28;20230;-79
2021/01/23 11:08:56;;;;;;;3.60;2.50;;;6.90;64.00;;;;;;5033746;28;20204;-84
2021/01/23 11:11:23;;;;;;;4.70;3.35;;;6.80;63.90;;;;;;5033641;28;20259;-82
2021/01/23 11:13:49;;;;;;;4.95;2.30;;;6.90;63.50;;;;;;5026417;28;20208;-78
2021/01/23 11:16:16;;;;;;;3.72;2.25;;;7.00;63.10;;;;;;5016125;28;20203;-77
2021/01/23 11:18:42;;;;;;;2.58;2.08;;;7.10;61.80;;;;;;5015972;28;20358;-78
2021/01/23 11:21:09;;;;;;;3.40;2.47;;;7.10;62.20;;;;;;5023941;28;20203;-78
2021/01/23 11:23:36;;;;;;;2.55;2.35;;;7.30;61.60;;;;;;5024670;28;20300;-78
2021/01/23 11:26:03;;;;;;;3.55;2.38;;;7.40;61.50;;;;;;5019902;28;20783;-77
2021/01/23 11:28:29;;;;;;;2.45;2.00;;;7.30;60.90;;;;;;5023184;28;20227;-76
2021/01/23 11:30:55;;;;;;;3.33;2.42;;;7.50;60.60;;;;;;5026830;28;20223;-77
2021/01/23 11:33:22;;;;;;;3.13;2.15;;;7.50;60.00;;;;;;5023202;28;20242;-77
2021/01/23 11:35:49;;;;;;;2.10;2.00;;;7.60;59.80;;;;;;5020101;28;20214;-77
2021/01/23 11:38:15;;;;;;;4.63;2.72;;;7.70;59.80;;;;;;5016105;28;20274;-77
2021/01/23 11:40:43;;;;;;;1.70;1.60;;;7.80;58.00;;;;;;5016161;28;20215;-77
2021/01/23 11:43:09;;;;;;;3.10;2.13;;;7.70;57.70;;;;;;5015930;28;20243;-78
2021/01/23 11:45:36;;;;;;;3.78;2.10;;;7.60;57.60;;;;;;5016313;28;20212;-76
2021/01/23 11:48:03;;;;;;;5.90;2.80;;;7.60;57.60;;;;;;5014208;28;20228;-77
2021/01/23 11:50:29;;;;;;;1.73;1.63;;;7.60;57.60;;;;;;5023482;28;20226;-74
2021/01/23 11:52:55;;;;;;;3.63;2.05;;;7.70;57.70;;;;;;5019475;28;20205;-81
2021/01/23 11:55:22;;;;;;;2.35;2.00;;;7.80;57.80;;;;;;5002589;28;20290;-77
2021/01/23 11:57:49;;;;;;;2.83;2.60;;;7.70;57.70;;;;;;5011742;28;20227;-79
2021/01/23 12:00:17;;;;;;;2.03;1.85;;;7.80;56.70;;;;;;5009848;28;20236;-78
2021/01/23 12:02:43;;;;;;;4.72;2.70;;;7.80;57.80;;;;;;5017712;28;20243;-78
2021/01/23 12:05:11;;;;;;;3.45;2.60;;;7.90;56.10;;;;;;5021042;28;20211;-81
2021/01/23 12:07:37;;;;;;;3.03;2.30;;;7.80;56.50;;;;;;5020085;28;20219;-76
2021/01/23 12:10:04;;;;;;;2.40;2.20;;;8.10;57.30;;;;;;5024538;28;20223;-78
2021/01/23 12:12:31;;;;;;;4.10;2.13;;;8.20;54.30;;;;;;5030808;28;20207;-81
2021/01/23 12:14:58;;;;;;;7.90;2.85;;;8.10;55.50;;;;;;5029830;28;20192;-80
2021/01/23 12:17:25;;;;;;;2.85;2.20;;;8.20;55.20;;;;;;5026449;28;20228;-80
2021/01/23 12:19:51;;;;;;;3.80;2.40;;;8.30;54.30;;;;;;5031546;28;20219;-77
2021/01/23 12:22:18;;;;;;;2.58;2.38;;;8.10;55.40;;;;;;5029455;28;20291;-80
2021/01/23 12:24:45;;;;;;;4.95;2.15;;;8.10;55.20;;;;;;5029025;28;20216;-80
2021/01/23 12:27:12;;;;;;;3.42;2.22;;;8.00;55.60;;;;;;5034786;28;20219;-78
2021/01/23 12:29:38;;;;;;;3.97;2.30;;;8.00;55.50;;;;;;5018464;28;20200;-80
2021/01/23 12:32:08;;;;;;;2.90;2.13;;;8.00;56.40;;;;;;5035438;28;20247;-78
2021/01/23 12:34:34;;;;;;;3.83;3.15;;;8.00;56.40;;;;;;5029185;28;20230;-82
2021/01/23 12:37:01;;;;;;;2.65;1.95;;;8.00;55.90;;;;;;5027275;28;20232;-79
2021/01/23 12:39:27;;;;;;;4.47;2.50;;;8.10;55.40;;;;;;5028175;28;20227;-78
2021/01/23 12:41:54;;;;;;;1.83;1.70;;;8.10;54.00;;;;;;5024515;28;20251;-76
2021/01/23 12:44:20;;;;;;;2.17;1.75;;;8.10;53.30;;;;;;5035547;28;20211;-74
2021/01/23 12:46:46;;;;;;;2.53;1.52;;;7.80;52.80;;;;;;5035308;28;20243;-76
2021/01/23 12:49:14;;;;;;;1.80;1.70;;;7.70;53.40;;;;;;5029919;28;20204;-79
2021/01/23 12:51:41;;;;;;;2.08;1.48;;;7.60;53.60;;;;;;5019776;28;20238;-81
2021/01/23 12:54:07;;;;;;;4.07;1.90;;;7.60;54.00;;;;;;5017349;28;20634;-78
2021/01/23 12:56:34;;;;;;;1.70;1.60;;;7.70;53.90;;;;;;5018155;28;20223;-78
2021/01/23 12:59:00;;;;;;;6.35;1.60;;;7.90;52.10;;;;;;5017212;28;20230;-78
2021/01/23 13:01:27;;;;;;;1.60;1.30;;;8.00;52.50;;;;;;5016706;28;20207;-78